sensor_id;sensor_type;location;lat;lon;timestamp;P1;durP1;ratioP1;P2;durP2;ratioP2
18752;SDS011;9505;50.882;5.350;2022-09-23T00:02:14;15.40;;;5.13;;
18752;SDS011;9505;50.882;5.350;2022-09-23T00:04:40;17.95;;;5.72;;
18752;SDS011;9505;50.882;5.350;2022-09-23T00:07:06;20.98;;;5.72;;
18752;SDS011;9505;50.882;5.350;2022-09-23T00:09:32;18.90;;;5.70;;
18752;SDS011;9505;50.882;5.350;2022-09-23T00:11:58;12.48;;;5.00;;
18752;SDS011;9505;50.882;5.350;2022-09-23T00:14:24;26.52;;;7.03;;
18752;SDS011;9505;50.882;5.350;2022-09-23T00:16:50;20.73;;;5.95;;
18752;SDS011;9505;50.882;5.350;2022-09-23T00:19:16;18.73;;;6.28;;
18752;SDS011;9505;50.882;5.350;2022-09-23T00:21:41;17.17;;;5.65;;
18752;SDS011;9505;50.882;5.350;2022-09-23T00:24:07;18.38;;;5.60;;
18752;SDS011;9505;50.882;5.350;2022-09-23T00:26:34;17.38;;;5.43;;
18752;SDS011;9505;50.882;5.350;2022-09-23T00:28:59;21.45;;;6.05;;
18752;SDS011;9505;50.882;5.350;2022-09-23T00:31:25;18.33;;;5.72;;
18752;SDS011;9505;50.882;5.350;2022-09-23T00:33:58;19.85;;;5.43;;
18752;SDS011;9505;50.882;5.350;2022-09-23T00:36:25;15.20;;;5.40;;
18752;SDS011;9505;50.882;5.350;2022-09-23T00:38:52;20.42;;;6.35;;
18752;SDS011;9505;50.882;5.350;2022-09-23T00:41:18;19.80;;;5.63;;
18752;SDS011;9505;50.882;5.350;2022-09-23T00:43:45;20.83;;;6.05;;
18752;SDS011;9505;50.882;5.350;2022-09-23T00:46:18;14.80;;;5.28;;
18752;SDS011;9505;50.882;5.350;2022-09-23T00:51:46;12.98;;;4.72;;
18752;SDS011;9505;50.882;5.350;2022-09-23T00:54:18;16.65;;;5.40;;
18752;SDS011;9505;50.882;5.350;2022-09-23T00:56:46;13.25;;;5.47;;
18752;SDS011;9505;50.882;5.350;2022-09-23T00:59:12;13.52;;;5.15;;
18752;SDS011;9505;50.882;5.350;2022-09-23T01:01:38;23.05;;;6.10;;
18752;SDS011;9505;50.882;5.350;2022-09-23T01:04:04;19.00;;;6.18;;
18752;SDS011;9505;50.882;5.350;2022-09-23T01:06:31;15.73;;;6.18;;
18752;SDS011;9505;50.882;5.350;2022-09-23T01:08:57;11.50;;;5.20;;
18752;SDS011;9505;50.882;5.350;2022-09-23T01:11:39;17.75;;;5.88;;
18752;SDS011;9505;50.882;5.350;2022-09-23T01:17:48;20.38;;;5.80;;
18752;SDS011;9505;50.882;5.350;2022-09-23T01:20:53;19.75;;;5.97;;
18752;SDS011;9505;50.882;5.350;2022-09-23T01:32:03;16.40;;;5.28;;
18752;SDS011;9505;50.882;5.350;2022-09-23T01:37:54;21.52;;;6.07;;
18752;SDS011;9505;50.882;5.350;2022-09-23T01:43:39;17.30;;;5.45;;
18752;SDS011;9505;50.882;5.350;2022-09-23T01:46:31;22.30;;;6.18;;
18752;SDS011;9505;50.882;5.350;2022-09-23T01:49:17;17.23;;;5.20;;
18752;SDS011;9505;50.882;5.350;2022-09-23T01:51:56;15.57;;;5.28;;
18752;SDS011;9505;50.882;5.350;2022-09-23T01:54:36;16.52;;;5.90;;
18752;SDS011;9505;50.882;5.350;2022-09-23T01:57:12;13.77;;;5.47;;
18752;SDS011;9505;50.882;5.350;2022-09-23T01:59:42;21.38;;;5.72;;
18752;SDS011;9505;50.882;5.350;2022-09-23T02:02:19;15.95;;;6.00;;
18752;SDS011;9505;50.882;5.350;2022-09-23T02:05:05;23.70;;;5.97;;
18752;SDS011;9505;50.882;5.350;2022-09-23T02:13:13;15.35;;;5.72;;
18752;SDS011;9505;50.882;5.350;2022-09-23T02:15:50;16.95;;;5.70;;
18752;SDS011;9505;50.882;5.350;2022-09-23T02:18:25;18.15;;;6.65;;
18752;SDS011;9505;50.882;5.350;2022-09-23T02:20:56;20.27;;;5.55;;
18752;SDS011;9505;50.882;5.350;2022-09-23T02:23:29;16.83;;;5.28;;
18752;SDS011;9505;50.882;5.350;2022-09-23T02:31:15;20.83;;;6.75;;
18752;SDS011;9505;50.882;5.350;2022-09-23T02:33:52;14.48;;;6.05;;
18752;SDS011;9505;50.882;5.350;2022-09-23T02:36:25;23.23;;;6.90;;
18752;SDS011;9505;50.882;5.350;2022-09-23T02:38:56;18.13;;;6.28;;
18752;SDS011;9505;50.882;5.350;2022-09-23T02:46:26;20.85;;;6.82;;
18752;SDS011;9505;50.882;5.350;2022-09-23T02:48:54;19.65;;;6.63;;
18752;SDS011;9505;50.882;5.350;2022-09-23T02:51:24;21.35;;;6.15;;
18752;SDS011;9505;50.882;5.350;2022-09-23T02:53:53;19.02;;;6.43;;
18752;SDS011;9505;50.882;5.350;2022-09-23T02:56:20;17.45;;;6.65;;
18752;SDS011;9505;50.882;5.350;2022-09-23T02:58:47;21.98;;;7.05;;
18752;SDS011;9505;50.882;5.350;2022-09-23T03:09:32;18.25;;;7.68;;
18752;SDS011;9505;50.882;5.350;2022-09-23T03:11:58;14.23;;;5.63;;
18752;SDS011;9505;50.882;5.350;2022-09-23T03:14:52;16.38;;;5.68;;
18752;SDS011;9505;50.882;5.350;2022-09-23T03:17:24;16.35;;;6.25;;
18752;SDS011;9505;50.882;5.350;2022-09-23T03:19:55;19.40;;;6.80;;
18752;SDS011;9505;50.882;5.350;2022-09-23T03:22:30;17.42;;;5.70;;
18752;SDS011;9505;50.882;5.350;2022-09-23T03:25:10;22.77;;;7.25;;
18752;SDS011;9505;50.882;5.350;2022-09-23T03:27:40;14.07;;;5.97;;
18752;SDS011;9505;50.882;5.350;2022-09-23T03:30:07;16.35;;;5.65;;
18752;SDS011;9505;50.882;5.350;2022-09-23T03:32:34;20.58;;;7.05;;
18752;SDS011;9505;50.882;5.350;2022-09-23T03:35:01;17.10;;;6.78;;
18752;SDS011;9505;50.882;5.350;2022-09-23T03:40:20;19.60;;;6.53;;
18752;SDS011;9505;50.882;5.350;2022-09-23T03:42:49;21.10;;;6.40;;
18752;SDS011;9505;50.882;5.350;2022-09-23T03:45:17;16.65;;;6.22;;
18752;SDS011;9505;50.882;5.350;2022-09-23T03:47:46;16.27;;;5.10;;
18752;SDS011;9505;50.882;5.350;2022-09-23T03:50:12;18.52;;;6.00;;
18752;SDS011;9505;50.882;5.350;2022-09-23T03:52:38;19.35;;;5.95;;
18752;SDS011;9505;50.882;5.350;2022-09-23T03:55:05;18.02;;;6.22;;
18752;SDS011;9505;50.882;5.350;2022-09-23T03:57:31;16.55;;;6.45;;
18752;SDS011;9505;50.882;5.350;2022-09-23T03:59:57;17.35;;;5.82;;
18752;SDS011;9505;50.882;5.350;2022-09-23T04:02:22;13.15;;;5.05;;
18752;SDS011;9505;50.882;5.350;2022-09-23T04:04:48;20.77;;;5.88;;
18752;SDS011;9505;50.882;5.350;2022-09-23T04:07:14;16.27;;;5.57;;
18752;SDS011;9505;50.882;5.350;2022-09-23T04:09:40;16.10;;;5.97;;
18752;SDS011;9505;50.882;5.350;2022-09-23T04:12:10;18.10;;;5.90;;
18752;SDS011;9505;50.882;5.350;2022-09-23T04:14:38;14.18;;;5.70;;
18752;SDS011;9505;50.882;5.350;2022-09-23T04:17:04;22.20;;;6.22;;
18752;SDS011;9505;50.882;5.350;2022-09-23T04:19:30;17.02;;;6.10;;
18752;SDS011;9505;50.882;5.350;2022-09-23T04:21:55;22.10;;;5.80;;
18752;SDS011;9505;50.882;5.350;2022-09-23T04:24:21;16.42;;;5.88;;
18752;SDS011;9505;50.882;5.350;2022-09-23T04:26:50;12.40;;;4.97;;
18752;SDS011;9505;50.882;5.350;2022-09-23T04:29:20;14.50;;;5.60;;
18752;SDS011;9505;50.882;5.350;2022-09-23T04:31:47;20.25;;;5.60;;
18752;SDS011;9505;50.882;5.350;2022-09-23T04:34:13;14.85;;;5.93;;
18752;SDS011;9505;50.882;5.350;2022-09-23T04:36:40;13.60;;;5.28;;
18752;SDS011;9505;50.882;5.350;2022-09-23T04:39:06;13.88;;;4.50;;
18752;SDS011;9505;50.882;5.350;2022-09-23T04:41:31;15.40;;;5.70;;
18752;SDS011;9505;50.882;5.350;2022-09-23T04:43:57;22.48;;;6.65;;
18752;SDS011;9505;50.882;5.350;2022-09-23T04:46:23;15.95;;;5.88;;
18752;SDS011;9505;50.882;5.350;2022-09-23T04:48:49;20.85;;;5.80;;
18752;SDS011;9505;50.882;5.350;2022-09-23T04:51:15;14.55;;;5.25;;
18752;SDS011;9505;50.882;5.350;2022-09-23T04:53:47;19.40;;;6.38;;
18752;SDS011;9505;50.882;5.350;2022-09-23T04:56:14;15.65;;;5.57;;
18752;SDS011;9505;50.882;5.350;2022-09-23T04:58:45;17.83;;;6.55;;
18752;SDS011;9505;50.882;5.350;2022-09-23T05:03:41;16.38;;;5.47;;
18752;SDS011;9505;50.882;5.350;2022-09-23T05:06:08;16.48;;;5.82;;
18752;SDS011;9505;50.882;5.350;2022-09-23T05:08:38;21.17;;;6.25;;
18752;SDS011;9505;50.882;5.350;2022-09-23T05:11:22;18.15;;;7.03;;
18752;SDS011;9505;50.882;5.350;2022-09-23T05:13:50;14.45;;;5.30;;
18752;SDS011;9505;50.882;5.350;2022-09-23T05:16:17;21.30;;;5.55;;
18752;SDS011;9505;50.882;5.350;2022-09-23T05:18:44;16.05;;;6.05;;
18752;SDS011;9505;50.882;5.350;2022-09-23T05:21:14;22.27;;;6.82;;
18752;SDS011;9505;50.882;5.350;2022-09-23T05:23:41;15.77;;;5.72;;
18752;SDS011;9505;50.882;5.350;2022-09-23T05:26:11;23.27;;;6.07;;
18752;SDS011;9505;50.882;5.350;2022-09-23T05:28:38;17.88;;;5.97;;
18752;SDS011;9505;50.882;5.350;2022-09-23T05:33:34;19.83;;;6.05;;
18752;SDS011;9505;50.882;5.350;2022-09-23T05:36:00;24.92;;;6.45;;
18752;SDS011;9505;50.882;5.350;2022-09-23T05:38:28;11.52;;;4.65;;
18752;SDS011;9505;50.882;5.350;2022-09-23T05:40:56;19.27;;;5.95;;
18752;SDS011;9505;50.882;5.350;2022-09-23T05:43:24;17.70;;;6.00;;
18752;SDS011;9505;50.882;5.350;2022-09-23T05:45:50;23.45;;;6.07;;
18752;SDS011;9505;50.882;5.350;2022-09-23T05:48:16;14.50;;;5.25;;
18752;SDS011;9505;50.882;5.350;2022-09-23T05:50:51;15.32;;;5.43;;
18752;SDS011;9505;50.882;5.350;2022-09-23T05:53:17;19.52;;;5.95;;
18752;SDS011;9505;50.882;5.350;2022-09-23T05:55:44;14.63;;;5.55;;
18752;SDS011;9505;50.882;5.350;2022-09-23T05:58:12;15.15;;;5.80;;
18752;SDS011;9505;50.882;5.350;2022-09-23T06:00:39;21.60;;;6.50;;
18752;SDS011;9505;50.882;5.350;2022-09-23T06:03:06;17.70;;;6.25;;
18752;SDS011;9505;50.882;5.350;2022-09-23T06:05:37;14.88;;;5.85;;
18752;SDS011;9505;50.882;5.350;2022-09-23T06:08:02;16.13;;;5.82;;
18752;SDS011;9505;50.882;5.350;2022-09-23T06:10:28;16.88;;;5.95;;
18752;SDS011;9505;50.882;5.350;2022-09-23T06:12:54;20.95;;;6.85;;
18752;SDS011;9505;50.882;5.350;2022-09-23T06:15:19;12.13;;;5.43;;
18752;SDS011;9505;50.882;5.350;2022-09-23T06:17:47;21.80;;;6.03;;
18752;SDS011;9505;50.882;5.350;2022-09-23T06:20:14;14.30;;;5.80;;
18752;SDS011;9505;50.882;5.350;2022-09-23T06:22:40;21.35;;;7.05;;
18752;SDS011;9505;50.882;5.350;2022-09-23T06:25:05;19.77;;;6.15;;
18752;SDS011;9505;50.882;5.350;2022-09-23T06:27:31;17.45;;;5.88;;
18752;SDS011;9505;50.882;5.350;2022-09-23T06:29:57;17.73;;;5.80;;
18752;SDS011;9505;50.882;5.350;2022-09-23T06:32:23;16.15;;;6.60;;
18752;SDS011;9505;50.882;5.350;2022-09-23T06:34:49;22.63;;;7.05;;
18752;SDS011;9505;50.882;5.350;2022-09-23T06:37:15;25.08;;;6.78;;
18752;SDS011;9505;50.882;5.350;2022-09-23T06:39:41;20.55;;;7.18;;
18752;SDS011;9505;50.882;5.350;2022-09-23T06:42:07;23.27;;;7.10;;
18752;SDS011;9505;50.882;5.350;2022-09-23T06:44:32;21.60;;;7.25;;
18752;SDS011;9505;50.882;5.350;2022-09-23T06:46:58;20.95;;;7.05;;
18752;SDS011;9505;50.882;5.350;2022-09-23T06:49:24;41.13;;;10.10;;
18752;SDS011;9505;50.882;5.350;2022-09-23T06:51:50;24.15;;;7.65;;
18752;SDS011;9505;50.882;5.350;2022-09-23T06:54:16;21.65;;;6.43;;
18752;SDS011;9505;50.882;5.350;2022-09-23T06:56:42;17.23;;;7.20;;
18752;SDS011;9505;50.882;5.350;2022-09-23T06:59:11;20.88;;;6.95;;
18752;SDS011;9505;50.882;5.350;2022-09-23T07:01:39;18.33;;;7.03;;
18752;SDS011;9505;50.882;5.350;2022-09-23T07:04:05;19.95;;;7.38;;
18752;SDS011;9505;50.882;5.350;2022-09-23T07:06:31;15.15;;;6.10;;
18752;SDS011;9505;50.882;5.350;2022-09-23T07:08:57;25.63;;;7.80;;
18752;SDS011;9505;50.882;5.350;2022-09-23T07:11:22;18.02;;;6.72;;
18752;SDS011;9505;50.882;5.350;2022-09-23T07:13:48;23.23;;;7.53;;
18752;SDS011;9505;50.882;5.350;2022-09-23T07:16:14;19.25;;;6.85;;
18752;SDS011;9505;50.882;5.350;2022-09-23T07:18:40;18.95;;;7.38;;
18752;SDS011;9505;50.882;5.350;2022-09-23T07:21:09;21.77;;;7.85;;
18752;SDS011;9505;50.882;5.350;2022-09-23T07:23:46;19.35;;;7.65;;
18752;SDS011;9505;50.882;5.350;2022-09-23T07:26:14;23.45;;;8.52;;
18752;SDS011;9505;50.882;5.350;2022-09-23T07:28:40;28.13;;;10.13;;
18752;SDS011;9505;50.882;5.350;2022-09-23T07:31:10;23.02;;;8.43;;
18752;SDS011;9505;50.882;5.350;2022-09-23T07:33:38;25.98;;;9.13;;
18752;SDS011;9505;50.882;5.350;2022-09-23T07:36:09;21.52;;;9.10;;
18752;SDS011;9505;50.882;5.350;2022-09-23T07:38:40;23.83;;;9.45;;
18752;SDS011;9505;50.882;5.350;2022-09-23T07:41:07;25.10;;;9.00;;
18752;SDS011;9505;50.882;5.350;2022-09-23T07:43:35;29.70;;;9.05;;
18752;SDS011;9505;50.882;5.350;2022-09-23T07:46:02;19.20;;;7.82;;
18752;SDS011;9505;50.882;5.350;2022-09-23T07:48:32;23.80;;;6.90;;
18752;SDS011;9505;50.882;5.350;2022-09-23T07:50:58;23.02;;;6.68;;
18752;SDS011;9505;50.882;5.350;2022-09-23T07:53:25;11.95;;;5.45;;
18752;SDS011;9505;50.882;5.350;2022-09-23T07:55:52;13.43;;;5.15;;
18752;SDS011;9505;50.882;5.350;2022-09-23T07:58:18;12.80;;;4.43;;
18752;SDS011;9505;50.882;5.350;2022-09-23T08:00:44;16.92;;;3.78;;
18752;SDS011;9505;50.882;5.350;2022-09-23T08:03:10;16.88;;;4.00;;
18752;SDS011;9505;50.882;5.350;2022-09-23T08:05:37;15.02;;;3.67;;
18752;SDS011;9505;50.882;5.350;2022-09-23T08:08:02;16.38;;;3.83;;
18752;SDS011;9505;50.882;5.350;2022-09-23T08:10:31;11.82;;;3.15;;
18752;SDS011;9505;50.882;5.350;2022-09-23T08:12:57;13.00;;;2.85;;
18752;SDS011;9505;50.882;5.350;2022-09-23T08:15:24;8.50;;;2.40;;
18752;SDS011;9505;50.882;5.350;2022-09-23T08:17:52;13.48;;;3.05;;
18752;SDS011;9505;50.882;5.350;2022-09-23T08:20:17;14.18;;;3.00;;
18752;SDS011;9505;50.882;5.350;2022-09-23T08:23:02;10.63;;;2.97;;
18752;SDS011;9505;50.882;5.350;2022-09-23T08:25:27;14.02;;;2.55;;
18752;SDS011;9505;50.882;5.350;2022-09-23T08:27:53;8.82;;;2.80;;
18752;SDS011;9505;50.882;5.350;2022-09-23T08:30:18;16.95;;;3.20;;
18752;SDS011;9505;50.882;5.350;2022-09-23T08:32:44;13.40;;;3.03;;
18752;SDS011;9505;50.882;5.350;2022-09-23T08:35:13;15.93;;;3.55;;
18752;SDS011;9505;50.882;5.350;2022-09-23T08:37:39;13.52;;;3.00;;
18752;SDS011;9505;50.882;5.350;2022-09-23T08:40:05;16.45;;;3.65;;
18752;SDS011;9505;50.882;5.350;2022-09-23T08:42:31;21.23;;;3.35;;
18752;SDS011;9505;50.882;5.350;2022-09-23T08:45:00;13.73;;;3.17;;
18752;SDS011;9505;50.882;5.350;2022-09-23T08:47:38;7.15;;;2.60;;
18752;SDS011;9505;50.882;5.350;2022-09-23T08:50:17;13.27;;;3.05;;
18752;SDS011;9505;50.882;5.350;2022-09-23T08:55:29;13.48;;;3.30;;
18752;SDS011;9505;50.882;5.350;2022-09-23T09:03:31;12.02;;;3.00;;
18752;SDS011;9505;50.882;5.350;2022-09-23T09:06:00;12.52;;;3.17;;
18752;SDS011;9505;50.882;5.350;2022-09-23T09:08:29;10.73;;;2.30;;
18752;SDS011;9505;50.882;5.350;2022-09-23T09:10:57;9.60;;;2.50;;
18752;SDS011;9505;50.882;5.350;2022-09-23T09:18:34;13.23;;;2.90;;
18752;SDS011;9505;50.882;5.350;2022-09-23T09:21:10;15.52;;;2.97;;
18752;SDS011;9505;50.882;5.350;2022-09-23T09:26:22;16.17;;;2.97;;
18752;SDS011;9505;50.882;5.350;2022-09-23T09:28:54;13.07;;;2.95;;
18752;SDS011;9505;50.882;5.350;2022-09-23T09:31:40;12.95;;;2.30;;
18752;SDS011;9505;50.882;5.350;2022-09-23T09:39:25;6.13;;;2.42;;
18752;SDS011;9505;50.882;5.350;2022-09-23T09:41:51;9.93;;;2.33;;
18752;SDS011;9505;50.882;5.350;2022-09-23T09:45:09;16.08;;;2.40;;
18752;SDS011;9505;50.882;5.350;2022-09-23T09:50:08;10.50;;;2.25;;
18752;SDS011;9505;50.882;5.350;2022-09-23T09:52:36;14.70;;;2.80;;
18752;SDS011;9505;50.882;5.350;2022-09-23T09:57:58;15.55;;;2.90;;
18752;SDS011;9505;50.882;5.350;2022-09-23T10:02:59;8.35;;;2.08;;
18752;SDS011;9505;50.882;5.350;2022-09-23T10:05:46;8.10;;;1.75;;
18752;SDS011;9505;50.882;5.350;2022-09-23T10:13:24;16.35;;;3.42;;
18752;SDS011;9505;50.882;5.350;2022-09-23T10:15:51;11.38;;;2.08;;
18752;SDS011;9505;50.882;5.350;2022-09-23T10:18:30;10.73;;;2.30;;
18752;SDS011;9505;50.882;5.350;2022-09-23T10:20:59;9.45;;;2.30;;
18752;SDS011;9505;50.882;5.350;2022-09-23T10:23:33;7.32;;;2.15;;
18752;SDS011;9505;50.882;5.350;2022-09-23T10:26:04;9.50;;;1.90;;
18752;SDS011;9505;50.882;5.350;2022-09-23T10:31:15;10.80;;;2.30;;
18752;SDS011;9505;50.882;5.350;2022-09-23T10:33:56;9.68;;;2.60;;
18752;SDS011;9505;50.882;5.350;2022-09-23T10:36:30;9.35;;;2.00;;
18752;SDS011;9505;50.882;5.350;2022-09-23T10:38:58;13.60;;;2.45;;
18752;SDS011;9505;50.882;5.350;2022-09-23T10:42:02;10.55;;;2.03;;
18752;SDS011;9505;50.882;5.350;2022-09-23T10:45:05;14.35;;;2.45;;
18752;SDS011;9505;50.882;5.350;2022-09-23T10:48:24;10.10;;;2.33;;
18752;SDS011;9505;50.882;5.350;2022-09-23T10:51:12;9.00;;;2.60;;
18752;SDS011;9505;50.882;5.350;2022-09-23T10:54:00;11.63;;;2.25;;
18752;SDS011;9505;50.882;5.350;2022-09-23T10:56:32;12.77;;;2.63;;
18752;SDS011;9505;50.882;5.350;2022-09-23T11:07:33;9.68;;;2.17;;
18752;SDS011;9505;50.882;5.350;2022-09-23T11:16:13;11.23;;;2.78;;
18752;SDS011;9505;50.882;5.350;2022-09-23T11:30:57;9.90;;;2.72;;
18752;SDS011;9505;50.882;5.350;2022-09-23T11:36:08;9.75;;;2.28;;
18752;SDS011;9505;50.882;5.350;2022-09-23T11:38:47;9.85;;;3.25;;
18752;SDS011;9505;50.882;5.350;2022-09-23T11:41:17;11.82;;;3.83;;
18752;SDS011;9505;50.882;5.350;2022-09-23T11:43:48;9.25;;;4.25;;
18752;SDS011;9505;50.882;5.350;2022-09-23T12:00:03;11.18;;;3.30;;
18752;SDS011;9505;50.882;5.350;2022-09-23T12:03:18;15.02;;;3.72;;
18752;SDS011;9505;50.882;5.350;2022-09-23T12:05:48;14.85;;;4.07;;
18752;SDS011;9505;50.882;5.350;2022-09-23T12:08:31;15.70;;;3.65;;
18752;SDS011;9505;50.882;5.350;2022-09-23T12:14:14;11.45;;;2.90;;
18752;SDS011;9505;50.882;5.350;2022-09-23T12:27:54;17.40;;;3.83;;
18752;SDS011;9505;50.882;5.350;2022-09-23T12:30:29;16.98;;;4.35;;
18752;SDS011;9505;50.882;5.350;2022-09-23T12:33:08;18.88;;;3.58;;
18752;SDS011;9505;50.882;5.350;2022-09-23T12:35:48;39.17;;;6.43;;
18752;SDS011;9505;50.882;5.350;2022-09-23T12:38:18;17.45;;;3.67;;
18752;SDS011;9505;50.882;5.350;2022-09-23T12:40:49;9.55;;;2.67;;
18752;SDS011;9505;50.882;5.350;2022-09-23T12:43:27;15.82;;;2.42;;
18752;SDS011;9505;50.882;5.350;2022-09-23T12:46:16;11.18;;;2.90;;
18752;SDS011;9505;50.882;5.350;2022-09-23T12:48:45;27.83;;;4.90;;
18752;SDS011;9505;50.882;5.350;2022-09-23T12:51:22;42.20;;;6.68;;
18752;SDS011;9505;50.882;5.350;2022-09-23T12:53:53;36.03;;;6.30;;
18752;SDS011;9505;50.882;5.350;2022-09-23T12:56:25;21.02;;;3.70;;
18752;SDS011;9505;50.882;5.350;2022-09-23T13:01:23;13.85;;;3.50;;
18752;SDS011;9505;50.882;5.350;2022-09-23T13:06:38;17.02;;;2.83;;
18752;SDS011;9505;50.882;5.350;2022-09-23T13:09:29;16.05;;;3.42;;
18752;SDS011;9505;50.882;5.350;2022-09-23T13:11:57;33.33;;;5.38;;
18752;SDS011;9505;50.882;5.350;2022-09-23T13:14:25;35.58;;;6.32;;
18752;SDS011;9505;50.882;5.350;2022-09-23T13:16:54;13.63;;;3.10;;
18752;SDS011;9505;50.882;5.350;2022-09-23T13:26:52;30.73;;;5.05;;
18752;SDS011;9505;50.882;5.350;2022-09-23T13:32:28;33.95;;;5.78;;
18752;SDS011;9505;50.882;5.350;2022-09-23T13:35:05;37.45;;;5.95;;
18752;SDS011;9505;50.882;5.350;2022-09-23T13:37:57;10.32;;;2.78;;
18752;SDS011;9505;50.882;5.350;2022-09-23T13:40:26;23.02;;;4.18;;
18752;SDS011;9505;50.882;5.350;2022-09-23T13:42:57;38.13;;;6.65;;
18752;SDS011;9505;50.882;5.350;2022-09-23T13:45:28;41.63;;;6.53;;
18752;SDS011;9505;50.882;5.350;2022-09-23T13:48:02;40.08;;;6.85;;
18752;SDS011;9505;50.882;5.350;2022-09-23T13:50:31;36.10;;;6.38;;
18752;SDS011;9505;50.882;5.350;2022-09-23T13:52:58;28.90;;;4.18;;
18752;SDS011;9505;50.882;5.350;2022-09-23T13:58:17;18.25;;;3.75;;
18752;SDS011;9505;50.882;5.350;2022-09-23T14:00:45;33.03;;;5.80;;
18752;SDS011;9505;50.882;5.350;2022-09-23T14:03:15;19.20;;;4.55;;
18752;SDS011;9505;50.882;5.350;2022-09-23T14:05:51;26.40;;;5.00;;
18752;SDS011;9505;50.882;5.350;2022-09-23T14:08:21;11.60;;;2.92;;
18752;SDS011;9505;50.882;5.350;2022-09-23T14:10:47;15.80;;;3.75;;
18752;SDS011;9505;50.882;5.350;2022-09-23T14:13:14;41.17;;;7.25;;
18752;SDS011;9505;50.882;5.350;2022-09-23T14:15:48;34.28;;;5.93;;
18752;SDS011;9505;50.882;5.350;2022-09-23T14:18:26;37.00;;;6.43;;
18752;SDS011;9505;50.882;5.350;2022-09-23T14:20:56;35.50;;;6.35;;
18752;SDS011;9505;50.882;5.350;2022-09-23T14:23:21;27.20;;;5.40;;
18752;SDS011;9505;50.882;5.350;2022-09-23T14:25:47;13.23;;;3.17;;
18752;SDS011;9505;50.882;5.350;2022-09-23T14:28:18;34.28;;;6.15;;
18752;SDS011;9505;50.882;5.350;2022-09-23T14:30:45;38.00;;;6.32;;
18752;SDS011;9505;50.882;5.350;2022-09-23T14:33:23;35.58;;;6.32;;
18752;SDS011;9505;50.882;5.350;2022-09-23T14:35:52;39.28;;;6.88;;
18752;SDS011;9505;50.882;5.350;2022-09-23T14:38:25;37.05;;;6.28;;
18752;SDS011;9505;50.882;5.350;2022-09-23T14:41:15;15.85;;;3.20;;
18752;SDS011;9505;50.882;5.350;2022-09-23T14:46:28;8.90;;;2.95;;
18752;SDS011;9505;50.882;5.350;2022-09-23T14:51:49;20.67;;;4.32;;
18752;SDS011;9505;50.882;5.350;2022-09-23T14:54:31;28.73;;;5.35;;
18752;SDS011;9505;50.882;5.350;2022-09-23T14:56:58;36.17;;;6.65;;
18752;SDS011;9505;50.882;5.350;2022-09-23T14:59:31;22.35;;;4.03;;
18752;SDS011;9505;50.882;5.350;2022-09-23T15:01:58;18.73;;;3.85;;
18752;SDS011;9505;50.882;5.350;2022-09-23T15:09:22;38.05;;;6.35;;
18752;SDS011;9505;50.882;5.350;2022-09-23T15:11:55;29.85;;;5.20;;
18752;SDS011;9505;50.882;5.350;2022-09-23T15:14:24;23.92;;;5.03;;
18752;SDS011;9505;50.882;5.350;2022-09-23T15:16:52;21.92;;;5.00;;
18752;SDS011;9505;50.882;5.350;2022-09-23T15:19:18;7.95;;;2.95;;
18752;SDS011;9505;50.882;5.350;2022-09-23T15:21:46;35.33;;;6.55;;
18752;SDS011;9505;50.882;5.350;2022-09-23T15:27:48;17.10;;;4.45;;
18752;SDS011;9505;50.882;5.350;2022-09-23T15:30:00;39.58;;;7.90;;
18752;SDS011;9505;50.882;5.350;2022-09-23T15:32:41;19.08;;;4.13;;
18752;SDS011;9505;50.882;5.350;2022-09-23T15:35:11;34.83;;;6.68;;
18752;SDS011;9505;50.882;5.350;2022-09-23T15:37:42;26.73;;;5.28;;
18752;SDS011;9505;50.882;5.350;2022-09-23T15:40:17;46.80;;;7.70;;
18752;SDS011;9505;50.882;5.350;2022-09-23T15:43:00;29.30;;;5.70;;
18752;SDS011;9505;50.882;5.350;2022-09-23T15:45:37;13.80;;;3.63;;
18752;SDS011;9505;50.882;5.350;2022-09-23T15:48:11;13.13;;;3.92;;
18752;SDS011;9505;50.882;5.350;2022-09-23T15:50:39;10.73;;;3.63;;
18752;SDS011;9505;50.882;5.350;2022-09-23T15:53:06;32.90;;;6.15;;
18752;SDS011;9505;50.882;5.350;2022-09-23T15:55:34;38.67;;;6.80;;
18752;SDS011;9505;50.882;5.350;2022-09-23T15:57:59;16.10;;;3.58;;
18752;SDS011;9505;50.882;5.350;2022-09-23T16:00:25;13.95;;;3.33;;
18752;SDS011;9505;50.882;5.350;2022-09-23T16:02:51;34.03;;;6.05;;
18752;SDS011;9505;50.882;5.350;2022-09-23T16:05:19;33.38;;;6.10;;
18752;SDS011;9505;50.882;5.350;2022-09-23T16:07:50;26.05;;;5.32;;
18752;SDS011;9505;50.882;5.350;2022-09-23T16:10:17;15.88;;;3.60;;
18752;SDS011;9505;50.882;5.350;2022-09-23T16:12:44;26.75;;;4.88;;
18752;SDS011;9505;50.882;5.350;2022-09-23T16:15:12;37.75;;;5.82;;
18752;SDS011;9505;50.882;5.350;2022-09-23T16:17:40;37.38;;;6.65;;
18752;SDS011;9505;50.882;5.350;2022-09-23T16:20:07;13.07;;;3.67;;
18752;SDS011;9505;50.882;5.350;2022-09-23T16:22:34;9.27;;;2.85;;
18752;SDS011;9505;50.882;5.350;2022-09-23T16:25:00;41.35;;;7.05;;
18752;SDS011;9505;50.882;5.350;2022-09-23T16:27:26;34.15;;;6.47;;
18752;SDS011;9505;50.882;5.350;2022-09-23T16:29:51;14.00;;;3.50;;
18752;SDS011;9505;50.882;5.350;2022-09-23T16:32:17;25.38;;;4.40;;
18752;SDS011;9505;50.882;5.350;2022-09-23T16:34:43;40.15;;;7.30;;
18752;SDS011;9505;50.882;5.350;2022-09-23T16:37:10;19.98;;;4.43;;
18752;SDS011;9505;50.882;5.350;2022-09-23T16:39:41;13.52;;;3.45;;
18752;SDS011;9505;50.882;5.350;2022-09-23T16:42:07;11.85;;;3.63;;
18752;SDS011;9505;50.882;5.350;2022-09-23T16:44:34;28.33;;;5.85;;
18752;SDS011;9505;50.882;5.350;2022-09-23T16:47:00;34.05;;;6.10;;
18752;SDS011;9505;50.882;5.350;2022-09-23T16:49:26;10.38;;;3.15;;
18752;SDS011;9505;50.882;5.350;2022-09-23T16:51:51;11.80;;;3.67;;
18752;SDS011;9505;50.882;5.350;2022-09-23T16:54:17;14.85;;;3.75;;
18752;SDS011;9505;50.882;5.350;2022-09-23T16:56:44;26.15;;;4.40;;
18752;SDS011;9505;50.882;5.350;2022-09-23T16:59:13;10.75;;;3.42;;
18752;SDS011;9505;50.882;5.350;2022-09-23T17:01:40;64.95;;;11.35;;
18752;SDS011;9505;50.882;5.350;2022-09-23T17:04:24;25.25;;;5.10;;
18752;SDS011;9505;50.882;5.350;2022-09-23T17:06:52;33.42;;;5.70;;
18752;SDS011;9505;50.882;5.350;2022-09-23T17:09:22;35.55;;;6.53;;
18752;SDS011;9505;50.882;5.350;2022-09-23T17:14:40;26.38;;;5.35;;
18752;SDS011;9505;50.882;5.350;2022-09-23T17:17:05;32.70;;;6.68;;
18752;SDS011;9505;50.882;5.350;2022-09-23T17:19:31;25.15;;;5.57;;
18752;SDS011;9505;50.882;5.350;2022-09-23T17:21:58;17.20;;;4.30;;
18752;SDS011;9505;50.882;5.350;2022-09-23T17:24:23;38.30;;;7.03;;
18752;SDS011;9505;50.882;5.350;2022-09-23T17:26:49;33.08;;;6.78;;
18752;SDS011;9505;50.882;5.350;2022-09-23T17:29:14;14.95;;;3.78;;
18752;SDS011;9505;50.882;5.350;2022-09-23T17:31:40;17.90;;;5.03;;
18752;SDS011;9505;50.882;5.350;2022-09-23T17:34:06;34.53;;;6.55;;
18752;SDS011;9505;50.882;5.350;2022-09-23T17:36:31;37.60;;;7.88;;
18752;SDS011;9505;50.882;5.350;2022-09-23T17:38:57;16.85;;;4.25;;
18752;SDS011;9505;50.882;5.350;2022-09-23T17:41:23;33.75;;;6.78;;
18752;SDS011;9505;50.882;5.350;2022-09-23T17:43:54;33.97;;;6.35;;
18752;SDS011;9505;50.882;5.350;2022-09-23T17:46:22;43.22;;;8.23;;
18752;SDS011;9505;50.882;5.350;2022-09-23T17:48:48;27.95;;;5.65;;
18752;SDS011;9505;50.882;5.350;2022-09-23T17:51:17;18.70;;;5.40;;
18752;SDS011;9505;50.882;5.350;2022-09-23T17:53:46;22.80;;;4.70;;
18752;SDS011;9505;50.882;5.350;2022-09-23T17:56:13;47.35;;;8.95;;
18752;SDS011;9505;50.882;5.350;2022-09-23T17:58:41;45.15;;;8.10;;
18752;SDS011;9505;50.882;5.350;2022-09-23T18:01:11;21.63;;;5.32;;
18752;SDS011;9505;50.882;5.350;2022-09-23T18:03:38;20.40;;;4.80;;
18752;SDS011;9505;50.882;5.350;2022-09-23T18:06:10;28.40;;;6.00;;
18752;SDS011;9505;50.882;5.350;2022-09-23T18:08:40;17.88;;;5.03;;
18752;SDS011;9505;50.882;5.350;2022-09-23T18:11:23;45.13;;;8.40;;